sensor_id;sensor_type;location;lat;lon;timestamp;noise_LAeq;noise_LA_min;noise_LA_max;noise_LA01;noise_LA95
72276;Laerm;61204;49.980;8.358;2023-04-25T00:01:31;46.59;40.14;60.88;;
72276;Laerm;61204;49.980;8.358;2023-04-25T00:03:58;46.43;39.95;56.43;;
72276;Laerm;61204;49.980;8.358;2023-04-25T00:06:24;48.31;43.24;56.42;;
72276;Laerm;61204;49.980;8.358;2023-04-25T00:08:52;48.00;43.34;53.93;;
72276;Laerm;61204;49.980;8.358;2023-04-25T00:11:18;47.33;42.49;55.06;;
72276;Laerm;61204;49.980;8.358;2023-04-25T00:13:44;46.62;41.09;54.31;;
72276;Laerm;61204;49.980;8.358;2023-04-25T00:16:11;47.40;40.68;55.31;;
72276;Laerm;61204;49.980;8.358;2023-04-25T00:18:39;48.58;41.95;58.34;;
72276;Laerm;61204;49.980;8.358;2023-04-25T00:21:05;45.33;40.49;51.35;;
72276;Laerm;61204;49.980;8.358;2023-04-25T00:23:31;46.27;41.12;52.37;;
72276;Laerm;61204;49.980;8.358;2023-04-25T00:25:57;46.55;40.43;53.11;;
72276;Laerm;61204;49.980;8.358;2023-04-25T00:28:22;47.97;43.14;56.75;;
72276;Laerm;61204;49.980;8.358;2023-04-25T00:30:47;46.54;40.45;56.38;;
72276;Laerm;61204;49.980;8.358;2023-04-25T00:33:15;45.96;40.23;53.11;;
72276;Laerm;61204;49.980;8.358;2023-04-25T00:35:41;45.99;39.72;55.80;;
72276;Laerm;61204;49.980;8.358;2023-04-25T00:38:07;43.68;37.61;55.32;;
72276;Laerm;61204;49.980;8.358;2023-04-25T00:40:32;43.64;38.06;51.78;;
72276;Laerm;61204;49.980;8.358;2023-04-25T00:42:58;44.56;40.26;50.33;;
72276;Laerm;61204;49.980;8.358;2023-04-25T00:45:28;44.13;38.91;49.52;;
72276;Laerm;61204;49.980;8.358;2023-04-25T00:47:57;43.20;38.91;49.68;;
72276;Laerm;61204;49.980;8.358;2023-04-25T00:50:24;44.19;38.89;51.76;;
72276;Laerm;61204;49.980;8.358;2023-04-25T00:52:50;43.61;38.55;56.03;;
72276;Laerm;61204;49.980;8.358;2023-04-25T00:55:16;43.60;38.69;52.24;;
72276;Laerm;61204;49.980;8.358;2023-04-25T00:57:42;42.84;37.94;56.63;;
72276;Laerm;61204;49.980;8.358;2023-04-25T01:00:09;42.14;36.66;47.77;;
72276;Laerm;61204;49.980;8.358;2023-04-25T01:02:37;44.66;39.52;54.58;;
72276;Laerm;61204;49.980;8.358;2023-04-25T01:05:06;44.58;39.44;50.36;;
72276;Laerm;61204;49.980;8.358;2023-04-25T01:07:31;44.98;39.02;51.67;;
72276;Laerm;61204;49.980;8.358;2023-04-25T01:09:57;46.52;40.75;51.74;;
72276;Laerm;61204;49.980;8.358;2023-04-25T01:12:23;45.66;40.10;51.71;;
72276;Laerm;61204;49.980;8.358;2023-04-25T01:14:49;43.93;37.57;53.96;;
72276;Laerm;61204;49.980;8.358;2023-04-25T01:17:15;44.57;37.89;53.04;;
72276;Laerm;61204;49.980;8.358;2023-04-25T01:19:41;44.27;39.55;49.27;;
72276;Laerm;61204;49.980;8.358;2023-04-25T01:22:07;45.49;39.64;52.34;;
72276;Laerm;61204;49.980;8.358;2023-04-25T01:24:36;46.08;40.05;52.83;;
72276;Laerm;61204;49.980;8.358;2023-04-25T01:27:03;43.15;36.28;51.49;;
72276;Laerm;61204;49.980;8.358;2023-04-25T01:29:29;46.18;38.35;55.11;;
72276;Laerm;61204;49.980;8.358;2023-04-25T01:31:55;45.41;38.88;59.53;;
72276;Laerm;61204;49.980;8.358;2023-04-25T01:34:24;43.56;36.67;50.91;;
72276;Laerm;61204;49.980;8.358;2023-04-25T01:36:50;44.88;37.22;49.88;;
72276;Laerm;61204;49.980;8.358;2023-04-25T01:39:17;44.66;39.46;51.07;;
72276;Laerm;61204;49.980;8.358;2023-04-25T01:41:43;44.33;38.91;51.70;;
72276;Laerm;61204;49.980;8.358;2023-04-25T01:44:09;45.52;38.93;50.83;;
72276;Laerm;61204;49.980;8.358;2023-04-25T01:46:35;45.85;38.65;58.87;;
72276;Laerm;61204;49.980;8.358;2023-04-25T01:49:01;44.81;39.80;52.37;;
72276;Laerm;61204;49.980;8.358;2023-04-25T01:51:27;44.81;38.82;49.81;;
72276;Laerm;61204;49.980;8.358;2023-04-25T01:53:53;46.06;38.65;59.88;;
72276;Laerm;61204;49.980;8.358;2023-04-25T01:56:20;46.19;42.24;54.87;;
72276;Laerm;61204;49.980;8.358;2023-04-25T01:58:46;46.96;41.27;53.55;;
72276;Laerm;61204;49.980;8.358;2023-04-25T02:01:11;46.34;40.74;54.03;;
72276;Laerm;61204;49.980;8.358;2023-04-25T02:03:37;48.49;42.18;57.88;;
72276;Laerm;61204;49.980;8.358;2023-04-25T02:06:03;45.87;39.79;53.16;;
72276;Laerm;61204;49.980;8.358;2023-04-25T02:08:28;46.37;41.90;52.39;;
72276;Laerm;61204;49.980;8.358;2023-04-25T02:10:54;45.26;39.66;49.55;;
72276;Laerm;61204;49.980;8.358;2023-04-25T02:13:19;47.57;39.70;58.70;;
72276;Laerm;61204;49.980;8.358;2023-04-25T02:15:45;46.36;41.56;51.76;;
72276;Laerm;61204;49.980;8.358;2023-04-25T02:18:10;47.52;40.98;62.54;;
72276;Laerm;61204;49.980;8.358;2023-04-25T02:20:36;46.58;41.65;52.78;;
72276;Laerm;61204;49.980;8.358;2023-04-25T02:23:02;46.20;41.65;51.01;;
72276;Laerm;61204;49.980;8.358;2023-04-25T02:28:27;47.57;43.50;54.37;;
72276;Laerm;61204;49.980;8.358;2023-04-25T02:30:53;47.15;42.30;52.54;;
72276;Laerm;61204;49.980;8.358;2023-04-25T02:33:18;46.26;42.19;51.42;;
72276;Laerm;61204;49.980;8.358;2023-04-25T02:35:43;46.34;42.26;54.13;;
72276;Laerm;61204;49.980;8.358;2023-04-25T02:38:09;47.77;42.33;59.71;;
72276;Laerm;61204;49.980;8.358;2023-04-25T02:40:35;49.58;42.85;61.93;;
72276;Laerm;61204;49.980;8.358;2023-04-25T02:43:00;48.77;43.48;60.30;;
72276;Laerm;61204;49.980;8.358;2023-04-25T02:45:26;48.50;42.01;63.74;;
72276;Laerm;61204;49.980;8.358;2023-04-25T02:47:51;49.53;42.01;62.70;;
72276;Laerm;61204;49.980;8.358;2023-04-25T02:50:17;51.53;43.16;66.71;;
72276;Laerm;61204;49.980;8.358;2023-04-25T02:52:43;49.98;42.64;61.34;;
72276;Laerm;61204;49.980;8.358;2023-04-25T02:55:09;50.99;44.06;64.48;;
72276;Laerm;61204;49.980;8.358;2023-04-25T02:57:36;55.43;42.87;76.59;;
72276;Laerm;61204;49.980;8.358;2023-04-25T03:00:01;55.85;43.14;76.33;;
72276;Laerm;61204;49.980;8.358;2023-04-25T03:02:27;59.01;42.33;76.92;;
72276;Laerm;61204;49.980;8.358;2023-04-25T03:04:54;58.71;43.59;76.17;;
72276;Laerm;61204;49.980;8.358;2023-04-25T03:07:20;59.00;42.91;76.07;;
72276;Laerm;61204;49.980;8.358;2023-04-25T03:09:45;61.27;43.54;77.39;;
72276;Laerm;61204;49.980;8.358;2023-04-25T03:12:10;61.89;44.76;78.67;;
72276;Laerm;61204;49.980;8.358;2023-04-25T03:14:38;62.13;45.32;77.00;;
72276;Laerm;61204;49.980;8.358;2023-04-25T03:17:04;62.30;46.51;77.87;;
72276;Laerm;61204;49.980;8.358;2023-04-25T03:19:29;62.82;45.67;77.77;;
72276;Laerm;61204;49.980;8.358;2023-04-25T03:21:55;63.25;45.36;77.89;;
72276;Laerm;61204;49.980;8.358;2023-04-25T03:24:21;63.06;46.08;78.15;;
72276;Laerm;61204;49.980;8.358;2023-04-25T03:26:47;60.31;45.41;81.58;;
72276;Laerm;61204;49.980;8.358;2023-04-25T03:29:14;65.87;45.64;81.21;;
72276;Laerm;61204;49.980;8.358;2023-04-25T03:31:42;65.65;44.49;82.84;;
72276;Laerm;61204;49.980;8.358;2023-04-25T03:34:07;56.41;45.54;72.98;;
72276;Laerm;61204;49.980;8.358;2023-04-25T03:36:33;58.07;45.17;72.00;;
72276;Laerm;61204;49.980;8.358;2023-04-25T03:38:58;59.09;45.24;74.00;;
72276;Laerm;61204;49.980;8.358;2023-04-25T03:41:24;58.56;46.13;75.04;;
72276;Laerm;61204;49.980;8.358;2023-04-25T03:43:50;59.43;46.59;74.33;;
72276;Laerm;61204;49.980;8.358;2023-04-25T03:46:15;58.38;45.90;73.37;;
72276;Laerm;61204;49.980;8.358;2023-04-25T03:48:41;59.51;46.19;73.31;;
72276;Laerm;61204;49.980;8.358;2023-04-25T03:51:06;54.95;45.00;75.26;;
72276;Laerm;61204;49.980;8.358;2023-04-25T03:53:31;50.67;45.98;59.28;;
72276;Laerm;61204;49.980;8.358;2023-04-25T03:55:57;51.80;45.29;61.82;;
72276;Laerm;61204;49.980;8.358;2023-04-25T03:58:25;50.47;44.08;63.57;;
72276;Laerm;61204;49.980;8.358;2023-04-25T04:00:50;52.36;45.61;64.18;;
72276;Laerm;61204;49.980;8.358;2023-04-25T04:03:16;51.29;45.87;60.50;;
72276;Laerm;61204;49.980;8.358;2023-04-25T04:05:43;52.81;46.02;67.82;;
72276;Laerm;61204;49.980;8.358;2023-04-25T04:08:10;51.85;45.66;60.46;;
72276;Laerm;61204;49.980;8.358;2023-04-25T04:10:35;52.18;45.50;62.89;;
72276;Laerm;61204;49.980;8.358;2023-04-25T04:13:01;51.67;46.05;64.50;;
72276;Laerm;61204;49.980;8.358;2023-04-25T04:15:26;50.92;45.18;61.97;;
72276;Laerm;61204;49.980;8.358;2023-04-25T04:17:52;53.06;45.99;67.12;;
72276;Laerm;61204;49.980;8.358;2023-04-25T04:20:20;54.87;46.26;68.90;;
72276;Laerm;61204;49.980;8.358;2023-04-25T04:22:48;51.67;46.13;61.05;;
72276;Laerm;61204;49.980;8.358;2023-04-25T04:25:13;54.02;45.51;69.66;;
72276;Laerm;61204;49.980;8.358;2023-04-25T04:27:39;54.38;45.03;68.99;;
72276;Laerm;61204;49.980;8.358;2023-04-25T04:30:06;51.19;45.00;64.12;;
72276;Laerm;61204;49.980;8.358;2023-04-25T04:32:32;52.29;46.79;66.84;;
72276;Laerm;61204;49.980;8.358;2023-04-25T04:34:58;51.00;44.56;69.44;;
72276;Laerm;61204;49.980;8.358;2023-04-25T04:37:24;52.44;46.76;65.13;;
72276;Laerm;61204;49.980;8.358;2023-04-25T04:39:50;52.07;46.74;62.84;;
72276;Laerm;61204;49.980;8.358;2023-04-25T04:42:15;51.97;47.53;60.84;;
72276;Laerm;61204;49.980;8.358;2023-04-25T04:44:41;50.94;45.70;61.77;;
72276;Laerm;61204;49.980;8.358;2023-04-25T04:47:09;51.90;47.15;60.62;;
72276;Laerm;61204;49.980;8.358;2023-04-25T04:49:35;50.84;45.98;62.36;;
72276;Laerm;61204;49.980;8.358;2023-04-25T04:52:01;52.11;45.88;62.86;;
72276;Laerm;61204;49.980;8.358;2023-04-25T04:54:27;53.52;43.99;70.73;;
72276;Laerm;61204;49.980;8.358;2023-04-25T04:56:52;53.03;44.91;65.93;;
72276;Laerm;61204;49.980;8.358;2023-04-25T04:59:18;52.08;44.06;68.58;;
72276;Laerm;61204;49.980;8.358;2023-04-25T05:01:43;50.53;43.60;67.09;;
72276;Laerm;61204;49.980;8.358;2023-04-25T05:04:09;53.46;44.01;71.56;;
72276;Laerm;61204;49.980;8.358;2023-04-25T05:06:34;55.42;46.14;68.08;;
72276;Laerm;61204;49.980;8.358;2023-04-25T05:09:00;51.47;46.03;64.45;;
72276;Laerm;61204;49.980;8.358;2023-04-25T05:11:25;49.93;46.14;56.00;;
72276;Laerm;61204;49.980;8.358;2023-04-25T05:13:52;52.39;45.98;61.96;;
72276;Laerm;61204;49.980;8.358;2023-04-25T05:16:19;52.69;46.34;61.81;;
72276;Laerm;61204;49.980;8.358;2023-04-25T05:18:46;49.70;45.78;64.14;;
72276;Laerm;61204;49.980;8.358;2023-04-25T05:21:11;53.02;45.89;70.12;;
72276;Laerm;61204;49.980;8.358;2023-04-25T05:23:37;53.19;45.93;65.63;;
72276;Laerm;61204;49.980;8.358;2023-04-25T05:26:02;51.71;45.44;65.17;;
72276;Laerm;61204;49.980;8.358;2023-04-25T05:28:28;51.48;45.86;66.14;;
72276;Laerm;61204;49.980;8.358;2023-04-25T05:30:54;52.71;47.11;65.11;;
72276;Laerm;61204;49.980;8.358;2023-04-25T05:33:19;52.46;45.45;61.66;;
72276;Laerm;61204;49.980;8.358;2023-04-25T05:35:45;50.17;44.60;59.76;;
72276;Laerm;61204;49.980;8.358;2023-04-25T05:38:11;50.24;43.49;61.46;;
72276;Laerm;61204;49.980;8.358;2023-04-25T05:40:36;49.01;44.21;59.46;;
72276;Laerm;61204;49.980;8.358;2023-04-25T05:43:02;52.98;44.15;63.98;;
72276;Laerm;61204;49.980;8.358;2023-04-25T05:45:28;52.53;44.51;67.01;;
72276;Laerm;61204;49.980;8.358;2023-04-25T05:47:55;50.77;43.86;59.66;;
72276;Laerm;61204;49.980;8.358;2023-04-25T05:50:21;49.31;42.28;61.20;;
72276;Laerm;61204;49.980;8.358;2023-04-25T05:52:46;50.77;43.23;67.60;;
72276;Laerm;61204;49.980;8.358;2023-04-25T05:55:14;50.96;41.96;62.91;;
72276;Laerm;61204;49.980;8.358;2023-04-25T05:57:40;51.97;44.65;62.14;;
72276;Laerm;61204;49.980;8.358;2023-04-25T06:00:09;52.72;44.75;71.66;;
72276;Laerm;61204;49.980;8.358;2023-04-25T06:02:35;50.58;43.65;61.94;;
72276;Laerm;61204;49.980;8.358;2023-04-25T06:05:00;50.48;43.24;61.26;;
72276;Laerm;61204;49.980;8.358;2023-04-25T06:07:29;51.42;42.22;60.71;;
72276;Laerm;61204;49.980;8.358;2023-04-25T06:09:55;51.04;43.24;62.90;;
72276;Laerm;61204;49.980;8.358;2023-04-25T06:12:20;52.88;42.39;66.95;;
72276;Laerm;61204;49.980;8.358;2023-04-25T06:14:46;51.82;43.33;65.25;;
72276;Laerm;61204;49.980;8.358;2023-04-25T06:17:11;56.01;43.57;68.28;;
72276;Laerm;61204;49.980;8.358;2023-04-25T06:19:37;51.02;42.65;59.83;;
72276;Laerm;61204;49.980;8.358;2023-04-25T06:22:05;50.53;44.75;59.92;;
72276;Laerm;61204;49.980;8.358;2023-04-25T06:24:30;51.88;43.12;64.23;;
72276;Laerm;61204;49.980;8.358;2023-04-25T06:26:56;54.16;42.31;68.66;;
72276;Laerm;61204;49.980;8.358;2023-04-25T06:29:22;52.81;42.39;63.49;;
72276;Laerm;61204;49.980;8.358;2023-04-25T06:31:47;51.60;41.57;61.53;;
72276;Laerm;61204;49.980;8.358;2023-04-25T06:34:13;51.37;41.91;65.60;;
72276;Laerm;61204;49.980;8.358;2023-04-25T06:36:38;53.15;43.35;66.72;;
72276;Laerm;61204;49.980;8.358;2023-04-25T06:39:03;56.22;43.58;67.92;;
72276;Laerm;61204;49.980;8.358;2023-04-25T06:41:29;53.08;42.62;67.26;;
72276;Laerm;61204;49.980;8.358;2023-04-25T06:43:54;49.08;43.37;66.77;;
72276;Laerm;61204;49.980;8.358;2023-04-25T06:46:20;52.39;42.37;67.26;;
72276;Laerm;61204;49.980;8.358;2023-04-25T06:48:45;53.60;43.87;72.01;;
72276;Laerm;61204;49.980;8.358;2023-04-25T06:51:11;50.93;44.57;62.54;;
72276;Laerm;61204;49.980;8.358;2023-04-25T06:53:39;51.91;43.71;68.26;;
72276;Laerm;61204;49.980;8.358;2023-04-25T06:56:07;58.29;40.95;80.85;;
72276;Laerm;61204;49.980;8.358;2023-04-25T06:58:33;53.33;40.78;76.03;;
72276;Laerm;61204;49.980;8.358;2023-04-25T07:00:58;53.14;40.49;62.25;;
72276;Laerm;61204;49.980;8.358;2023-04-25T07:03:24;45.43;40.95;55.42;;
72276;Laerm;61204;49.980;8.358;2023-04-25T07:05:50;49.35;41.70;62.83;;
72276;Laerm;61204;49.980;8.358;2023-04-25T07:08:16;54.19;41.98;70.54;;
72276;Laerm;61204;49.980;8.358;2023-04-25T07:10:42;54.89;43.23;66.76;;
72276;Laerm;61204;49.980;8.358;2023-04-25T07:13:07;53.78;41.65;67.29;;
72276;Laerm;61204;49.980;8.358;2023-04-25T07:15:33;48.35;41.70;58.48;;
72276;Laerm;61204;49.980;8.358;2023-04-25T07:17:59;49.58;42.51;62.68;;
72276;Laerm;61204;49.980;8.358;2023-04-25T07:20:24;50.03;42.17;59.21;;
72276;Laerm;61204;49.980;8.358;2023-04-25T07:22:50;49.84;43.07;58.89;;
72276;Laerm;61204;49.980;8.358;2023-04-25T07:25:16;51.46;44.40;62.49;;
72276;Laerm;61204;49.980;8.358;2023-04-25T07:27:42;53.99;45.81;63.46;;
72276;Laerm;61204;49.980;8.358;2023-04-25T07:30:08;51.20;44.86;66.32;;
72276;Laerm;61204;49.980;8.358;2023-04-25T07:32:34;49.36;44.23;61.42;;
72276;Laerm;61204;49.980;8.358;2023-04-25T07:35:00;47.74;44.28;55.92;;
72276;Laerm;61204;49.980;8.358;2023-04-25T07:37:27;51.82;44.27;64.13;;
72276;Laerm;61204;49.980;8.358;2023-04-25T07:39:52;49.27;42.81;64.46;;
72276;Laerm;61204;49.980;8.358;2023-04-25T07:42:17;50.95;43.02;62.80;;
72276;Laerm;61204;49.980;8.358;2023-04-25T07:44:43;52.49;44.08;66.14;;
72276;Laerm;61204;49.980;8.358;2023-04-25T07:47:09;47.45;42.18;61.15;;
72276;Laerm;61204;49.980;8.358;2023-04-25T07:49:36;49.56;42.44;63.55;;
72276;Laerm;61204;49.980;8.358;2023-04-25T07:52:06;49.69;42.02;68.19;;
72276;Laerm;61204;49.980;8.358;2023-04-25T07:54:31;50.34;42.41;60.35;;
72276;Laerm;61204;49.980;8.358;2023-04-25T07:56:58;49.74;44.08;59.75;;
72276;Laerm;61204;49.980;8.358;2023-04-25T07:59:24;53.51;42.62;72.13;;
72276;Laerm;61204;49.980;8.358;2023-04-25T08:01:50;49.66;42.09;63.09;;
72276;Laerm;61204;49.980;8.358;2023-04-25T08:04:16;53.35;41.07;66.49;;
72276;Laerm;61204;49.980;8.358;2023-04-25T08:06:42;50.75;42.36;62.57;;
72276;Laerm;61204;49.980;8.358;2023-04-25T08:09:08;50.41;42.10;60.56;;
72276;Laerm;61204;49.980;8.358;2023-04-25T08:11:35;47.52;42.21;63.00;;
72276;Laerm;61204;49.980;8.358;2023-04-25T08:14:00;51.61;42.68;61.76;;
72276;Laerm;61204;49.980;8.358;2023-04-25T08:16:27;47.69;41.46;61.41;;
72276;Laerm;61204;49.980;8.358;2023-04-25T08:18:52;49.29;42.05;59.42;;
72276;Laerm;61204;49.980;8.358;2023-04-25T08:21:18;50.69;41.27;64.18;;
72276;Laerm;61204;49.980;8.358;2023-04-25T08:23:43;47.82;40.98;59.73;;
72276;Laerm;61204;49.980;8.358;2023-04-25T08:26:09;53.97;41.86;65.41;;
72276;Laerm;61204;49.980;8.358;2023-04-25T08:28:34;50.38;41.93;61.77;;
72276;Laerm;61204;49.980;8.358;2023-04-25T08:31:00;52.71;41.09;65.26;;
72276;Laerm;61204;49.980;8.358;2023-04-25T08:33:27;52.00;41.24;68.86;;
72276;Laerm;61204;49.980;8.358;2023-04-25T08:35:53;50.62;41.28;70.84;;
72276;Laerm;61204;49.980;8.358;2023-04-25T08:38:18;46.04;41.32;56.95;;
72276;Laerm;61204;49.980;8.358;2023-04-25T08:40:50;46.06;40.56;61.63;;
72276;Laerm;61204;49.980;8.358;2023-04-25T08:43:19;52.44;41.33;68.54;;
72276;Laerm;61204;49.980;8.358;2023-04-25T08:45:46;49.44;42.03;58.73;;
72276;Laerm;61204;49.980;8.358;2023-04-25T08:48:15;53.77;41.56;66.91;;
72276;Laerm;61204;49.980;8.358;2023-04-25T08:53:12;50.84;41.76;64.32;;
72276;Laerm;61204;49.980;8.358;2023-04-25T08:55:47;45.29;41.40;60.95;;
72276;Laerm;61204;49.980;8.358;2023-04-25T08:58:14;44.95;40.88;55.31;;
72276;Laerm;61204;49.980;8.358;2023-04-25T09:00:40;47.40;41.91;60.66;;
72276;Laerm;61204;49.980;8.358;2023-04-25T09:03:06;53.37;42.39;70.82;;
72276;Laerm;61204;49.980;8.358;2023-04-25T09:05:33;53.72;41.85;70.28;;
72276;Laerm;61204;49.980;8.358;2023-04-25T09:08:00;49.46;41.22;65.57;;
72276;Laerm;61204;49.980;8.358;2023-04-25T09:10:28;50.70;42.16;62.47;;
72276;Laerm;61204;49.980;8.358;2023-04-25T09:13:14;51.12;41.94;67.53;;
72276;Laerm;61204;49.980;8.358;2023-04-25T09:15:49;49.28;41.35;65.96;;
72276;Laerm;61204;49.980;8.358;2023-04-25T09:18:29;49.10;41.16;61.82;;
72276;Laerm;61204;49.980;8.358;2023-04-25T09:21:06;47.88;39.62;58.46;;
72276;Laerm;61204;49.980;8.358;2023-04-25T09:23:40;46.30;39.77;58.31;;
72276;Laerm;61204;49.980;8.358;2023-04-25T09:26:07;49.95;43.16;60.87;;
72276;Laerm;61204;49.980;8.358;2023-04-25T09:28:34;46.77;41.58;63.88;;
72276;Laerm;61204;49.980;8.358;2023-04-25T09:31:00;50.55;42.14;61.23;;
72276;Laerm;61204;49.980;8.358;2023-04-25T09:33:30;50.87;40.13;63.78;;
72276;Laerm;61204;49.980;8.358;2023-04-25T09:36:05;50.70;42.35;67.68;;
72276;Laerm;61204;49.980;8.358;2023-04-25T09:38:44;47.88;42.11;60.17;;
72276;Laerm;61204;49.980;8.358;2023-04-25T09:41:10;52.28;43.70;63.65;;
72276;Laerm;61204;49.980;8.358;2023-04-25T09:43:37;49.76;42.70;66.06;;
72276;Laerm;61204;49.980;8.358;2023-04-25T09:46:08;50.56;41.43;67.44;;
72276;Laerm;61204;49.980;8.358;2023-04-25T09:48:34;51.19;42.02;67.77;;
72276;Laerm;61204;49.980;8.358;2023-04-25T09:51:13;49.24;41.40;62.65;;
72276;Laerm;61204;49.980;8.358;2023-04-25T09:53:44;46.59;39.46;60.95;;
72276;Laerm;61204;49.980;8.358;2023-04-25T09:56:16;48.61;40.85;61.56;;
72276;Laerm;61204;49.980;8.358;2023-04-25T09:58:42;47.46;42.34;59.63;;
72276;Laerm;61204;49.980;8.358;2023-04-25T10:01:09;51.72;43.67;61.37;;
72276;Laerm;61204;49.980;8.358;2023-04-25T10:03:37;49.33;44.25;62.36;;
72276;Laerm;61204;49.980;8.358;2023-04-25T10:06:19;49.67;45.58;58.18;;
72276;Laerm;61204;49.980;8.358;2023-04-25T10:08:50;52.92;44.99;69.39;;
72276;Laerm;61204;49.980;8.358;2023-04-25T10:11:17;52.72;43.06;67.52;;
72276;Laerm;61204;49.980;8.358;2023-04-25T10:13:43;50.93;43.64;67.54;;
72276;Laerm;61204;49.980;8.358;2023-04-25T10:16:10;48.38;42.91;58.83;;
72276;Laerm;61204;49.980;8.358;2023-04-25T10:18:35;52.16;42.95;65.06;;
72276;Laerm;61204;49.980;8.358;2023-04-25T10:21:04;48.83;41.98;61.25;;
72276;Laerm;61204;49.980;8.358;2023-04-25T10:23:32;49.35;42.74;61.96;;
72276;Laerm;61204;49.980;8.358;2023-04-25T10:26:00;49.08;42.53;59.34;;
72276;Laerm;61204;49.980;8.358;2023-04-25T10:28:26;52.07;42.13;64.47;;
72276;Laerm;61204;49.980;8.358;2023-04-25T10:31:03;50.70;42.58;60.87;;
72276;Laerm;61204;49.980;8.358;2023-04-25T10:33:37;52.62;43.36;63.85;;
72276;Laerm;61204;49.980;8.358;2023-04-25T10:38:36;48.09;41.68;63.76;;
72276;Laerm;61204;49.980;8.358;2023-04-25T10:41:05;51.47;43.35;65.14;;
72276;Laerm;61204;49.980;8.358;2023-04-25T10:45:57;52.14;42.86;66.14;;
72276;Laerm;61204;49.980;8.358;2023-04-25T10:48:28;46.18;41.06;57.65;;
72276;Laerm;61204;49.980;8.358;2023-04-25T10:51:11;46.02;41.11;56.07;;
72276;Laerm;61204;49.980;8.358;2023-04-25T10:53:37;48.77;43.50;58.75;;
72276;Laerm;61204;49.980;8.358;2023-04-25T10:56:18;53.34;43.15;71.01;;
72276;Laerm;61204;49.980;8.358;2023-04-25T10:58:45;53.35;44.55;71.96;;
72276;Laerm;61204;49.980;8.358;2023-04-25T11:01:19;52.56;42.71;70.41;;
72276;Laerm;61204;49.980;8.358;2023-04-25T11:03:45;52.10;43.56;66.56;;
72276;Laerm;61204;49.980;8.358;2023-04-25T11:06:23;53.16;45.36;67.24;;
72276;Laerm;61204;49.980;8.358;2023-04-25T11:08:53;56.13;45.85;71.69;;
72276;Laerm;61204;49.980;8.358;2023-04-25T11:11:19;55.03;44.83;70.91;;
72276;Laerm;61204;49.980;8.358;2023-04-25T11:13:49;47.94;44.59;59.94;;
72276;Laerm;61204;49.980;8.358;2023-04-25T11:16:16;53.17;44.70;68.71;;
72276;Laerm;61204;49.980;8.358;2023-04-25T11:18:43;50.68;42.71;65.13;;
72276;Laerm;61204;49.980;8.358;2023-04-25T11:21:09;50.00;44.49;58.77;;
72276;Laerm;61204;49.980;8.358;2023-04-25T11:23:35;52.72;44.32;63.11;;
72276;Laerm;61204;49.980;8.358;2023-04-25T11:26:03;49.14;42.93;63.81;;
72276;Laerm;61204;49.980;8.358;2023-04-25T11:28:29;49.94;42.20;63.15;;
72276;Laerm;61204;49.980;8.358;2023-04-25T11:30:56;46.78;42.50;65.84;;
72276;Laerm;61204;49.980;8.358;2023-04-25T11:33:25;49.75;43.59;65.77;;
72276;Laerm;61204;49.980;8.358;2023-04-25T11:35:55;51.36;43.15;69.10;;
72276;Laerm;61204;49.980;8.358;2023-04-25T11:38:25;49.18;43.74;62.46;;
72276;Laerm;61204;49.980;8.358;2023-04-25T11:40:53;51.70;44.11;63.09;;
72276;Laerm;61204;49.980;8.358;2023-04-25T11:43:22;51.09;42.33;63.13;;
72276;Laerm;61204;49.980;8.358;2023-04-25T11:45:51;53.30;43.84;72.78;;
72276;Laerm;61204;49.980;8.358;2023-04-25T11:48:18;55.68;44.45;73.03;;
72276;Laerm;61204;49.980;8.358;2023-04-25T11:50:44;58.06;43.25;76.96;;
72276;Laerm;61204;49.980;8.358;2023-04-25T11:53:10;61.37;42.24;81.59;;
72276;Laerm;61204;49.980;8.358;2023-04-25T11:55:37;48.43;42.79;59.28;;
72276;Laerm;61204;49.980;8.358;2023-04-25T11:58:04;49.22;41.73;70.20;;
72276;Laerm;61204;49.980;8.358;2023-04-25T12:00:30;49.11;41.70;62.53;;
72276;Laerm;61204;49.980;8.358;2023-04-25T12:02:57;46.99;42.00;55.25;;
72276;Laerm;61204;49.980;8.358;2023-04-25T12:05:29;49.04;43.82;62.18;;
72276;Laerm;61204;49.980;8.358;2023-04-25T12:07:56;50.95;44.84;69.58;;
72276;Laerm;61204;49.980;8.358;2023-04-25T12:10:27;51.38;45.00;66.71;;
72276;Laerm;61204;49.980;8.358;2023-04-25T12:12:53;57.20;43.54;75.11;;
72276;Laerm;61204;49.980;8.358;2023-04-25T12:15:24;55.45;44.82;70.47;;
72276;Laerm;61204;49.980;8.358;2023-04-25T12:17:54;52.40;45.12;68.43;;
72276;Laerm;61204;49.980;8.358;2023-04-25T12:20:24;52.06;44.61;66.44;;
72276;Laerm;61204;49.980;8.358;2023-04-25T12:22:51;51.00;44.75;67.23;;
72276;Laerm;61204;49.980;8.358;2023-04-25T12:25:41;52.18;44.11;70.09;;
72276;Laerm;61204;49.980;8.358;2023-04-25T12:28:23;51.69;43.89;68.45;;
72276;Laerm;61204;49.980;8.358;2023-04-25T12:31:04;57.94;43.57;69.92;;
72276;Laerm;61204;49.980;8.358;2023-04-25T12:33:35;50.93;42.59;65.81;;
72276;Laerm;61204;49.980;8.358;2023-04-25T12:36:05;59.86;44.44;82.80;;
72276;Laerm;61204;49.980;8.358;2023-04-25T12:38:40;63.10;60.89;65.66;;
72276;Laerm;61204;49.980;8.358;2023-04-25T12:41:07;63.14;60.97;69.68;;
72276;Laerm;61204;49.980;8.358;2023-04-25T12:43:33;63.29;60.22;66.35;;
72276;Laerm;61204;49.980;8.358;2023-04-25T12:45:58;63.59;61.08;66.38;;
72276;Laerm;61204;49.980;8.358;2023-04-25T12:48:29;63.08;60.62;66.16;;
72276;Laerm;61204;49.980;8.358;2023-04-25T12:50:54;59.11;44.45;64.29;;
72276;Laerm;61204;49.980;8.358;2023-04-25T12:53:22;55.12;45.38;66.79;;
72276;Laerm;61204;49.980;8.358;2023-04-25T12:55:49;53.33;44.54;69.78;;
72276;Laerm;61204;49.980;8.358;2023-04-25T12:58:16;53.01;44.35;69.96;;
72276;Laerm;61204;49.980;8.358;2023-04-25T13:00:43;56.58;43.55;70.37;;
72276;Laerm;61204;49.980;8.358;2023-04-25T13:03:09;51.56;42.53;65.71;;
72276;Laerm;61204;49.980;8.358;2023-04-25T13:05:36;53.51;42.23;65.22;;
72276;Laerm;61204;49.980;8.358;2023-04-25T13:08:02;50.91;41.81;68.40;;
72276;Laerm;61204;49.980;8.358;2023-04-25T13:10:30;48.37;41.63;65.14;;
72276;Laerm;61204;49.980;8.358;2023-04-25T13:12:55;52.85;40.26;72.67;;
72276;Laerm;61204;49.980;8.358;2023-04-25T13:15:21;49.61;41.47;59.94;;
72276;Laerm;61204;49.980;8.358;2023-04-25T13:17:47;48.20;42.46;57.49;;
72276;Laerm;61204;49.980;8.358;2023-04-25T13:20:12;51.28;43.40;66.81;;
72276;Laerm;61204;49.980;8.358;2023-04-25T13:22:42;48.07;42.04;59.52;;
72276;Laerm;61204;49.980;8.358;2023-04-25T13:25:11;49.36;41.72;67.54;;
72276;Laerm;61204;49.980;8.358;2023-04-25T13:27:38;48.73;41.88;60.23;;
72276;Laerm;61204;49.980;8.358;2023-04-25T13:30:06;48.45;42.59;58.56;;
72276;Laerm;61204;49.980;8.358;2023-04-25T13:32:39;49.74;43.14;61.34;;
72276;Laerm;61204;49.980;8.358;2023-04-25T13:35:10;47.32;42.10;56.78;;
72276;Laerm;61204;49.980;8.358;2023-04-25T13:37:37;49.45;42.66;58.59;;
72276;Laerm;61204;49.980;8.358;2023-04-25T13:40:09;45.57;41.81;57.19;;
72276;Laerm;61204;49.980;8.358;2023-04-25T13:42:36;49.93;42.93;60.80;;
72276;Laerm;61204;49.980;8.358;2023-04-25T13:45:02;48.81;42.75;59.79;;
72276;Laerm;61204;49.980;8.358;2023-04-25T13:47:29;50.76;42.98;66.53;;
72276;Laerm;61204;49.980;8.358;2023-04-25T13:49:55;49.81;42.39;62.71;;
72276;Laerm;61204;49.980;8.358;2023-04-25T13:52:21;47.74;42.36;61.32;;
72276;Laerm;61204;49.980;8.358;2023-04-25T13:54:47;51.16;41.87;64.81;;